sensor_id;sensor_type;location;lat;lon;timestamp;temperature;humidity
29185;DHT22;16233;47.964;-3.842;2022-10-16T00:01:27;13.70;99.90
29185;DHT22;16233;47.964;-3.842;2022-10-16T00:03:29;13.70;99.90
29185;DHT22;16233;47.964;-3.842;2022-10-16T00:05:30;13.60;99.90
29185;DHT22;16233;47.964;-3.842;2022-10-16T00:07:31;13.60;99.90
29185;DHT22;16233;47.964;-3.842;2022-10-16T00:09:32;13.60;99.90
29185;DHT22;16233;47.964;-3.842;2022-10-16T00:11:35;13.60;99.90
29185;DHT22;16233;47.964;-3.842;2022-10-16T00:13:37;13.50;99.90
29185;DHT22;16233;47.964;-3.842;2022-10-16T00:15:40;13.50;99.90
29185;DHT22;16233;47.964;-3.842;2022-10-16T00:17:41;13.50;99.90
29185;DHT22;16233;47.964;-3.842;2022-10-16T00:19:42;13.50;99.90
29185;DHT22;16233;47.964;-3.842;2022-10-16T00:21:43;13.40;99.90
29185;DHT22;16233;47.964;-3.842;2022-10-16T00:23:44;13.40;99.90
29185;DHT22;16233;47.964;-3.842;2022-10-16T00:25:53;13.50;99.90
29185;DHT22;16233;47.964;-3.842;2022-10-16T00:27:55;13.50;99.90
29185;DHT22;16233;47.964;-3.842;2022-10-16T00:29:56;13.50;99.90
29185;DHT22;16233;47.964;-3.842;2022-10-16T00:31:58;13.50;99.90
29185;DHT22;16233;47.964;-3.842;2022-10-16T00:33:59;13.60;99.90
29185;DHT22;16233;47.964;-3.842;2022-10-16T00:36:00;13.60;99.90
29185;DHT22;16233;47.964;-3.842;2022-10-16T00:38:02;13.60;99.90
29185;DHT22;16233;47.964;-3.842;2022-10-16T00:40:03;13.60;99.90
29185;DHT22;16233;47.964;-3.842;2022-10-16T00:42:05;13.60;99.90
29185;DHT22;16233;47.964;-3.842;2022-10-16T00:46:41;13.60;99.90
29185;DHT22;16233;47.964;-3.842;2022-10-16T00:48:48;13.50;99.90
29185;DHT22;16233;47.964;-3.842;2022-10-16T00:50:50;13.60;99.90
29185;DHT22;16233;47.964;-3.842;2022-10-16T00:52:53;13.50;99.90
29185;DHT22;16233;47.964;-3.842;2022-10-16T00:54:54;13.50;99.90
29185;DHT22;16233;47.964;-3.842;2022-10-16T00:56:59;13.60;99.90
29185;DHT22;16233;47.964;-3.842;2022-10-16T00:59:02;13.60;99.90
29185;DHT22;16233;47.964;-3.842;2022-10-16T01:01:04;13.60;99.90
29185;DHT22;16233;47.964;-3.842;2022-10-16T01:03:24;13.60;99.90
29185;DHT22;16233;47.964;-3.842;2022-10-16T01:05:28;13.60;99.90
29185;DHT22;16233;47.964;-3.842;2022-10-16T01:07:39;13.60;99.90
29185;DHT22;16233;47.964;-3.842;2022-10-16T01:09:54;13.50;99.90
29185;DHT22;16233;47.964;-3.842;2022-10-16T01:12:03;13.50;99.90
29185;DHT22;16233;47.964;-3.842;2022-10-16T01:14:11;13.40;99.90
29185;DHT22;16233;47.964;-3.842;2022-10-16T01:16:19;13.40;99.90
29185;DHT22;16233;47.964;-3.842;2022-10-16T01:18:26;13.30;99.90
29185;DHT22;16233;47.964;-3.842;2022-10-16T01:20:34;13.30;99.90
29185;DHT22;16233;47.964;-3.842;2022-10-16T01:22:41;13.20;99.90
29185;DHT22;16233;47.964;-3.842;2022-10-16T01:24:46;13.10;99.90
29185;DHT22;16233;47.964;-3.842;2022-10-16T01:27:04;13.10;99.90
29185;DHT22;16233;47.964;-3.842;2022-10-16T01:29:09;13.00;99.90
29185;DHT22;16233;47.964;-3.842;2022-10-16T01:31:16;13.00;99.90
29185;DHT22;16233;47.964;-3.842;2022-10-16T01:33:21;13.00;99.90
29185;DHT22;16233;47.964;-3.842;2022-10-16T01:35:26;13.10;99.90
29185;DHT22;16233;47.964;-3.842;2022-10-16T01:37:32;13.10;99.90
29185;DHT22;16233;47.964;-3.842;2022-10-16T01:39:38;13.10;99.90
29185;DHT22;16233;47.964;-3.842;2022-10-16T01:41:43;13.10;99.90
29185;DHT22;16233;47.964;-3.842;2022-10-16T01:43:51;13.20;99.90
29185;DHT22;16233;47.964;-3.842;2022-10-16T01:45:54;13.20;99.90
29185;DHT22;16233;47.964;-3.842;2022-10-16T01:47:56;13.10;99.90
29185;DHT22;16233;47.964;-3.842;2022-10-16T01:49:59;13.10;99.90
29185;DHT22;16233;47.964;-3.842;2022-10-16T01:52:04;13.00;99.90
29185;DHT22;16233;47.964;-3.842;2022-10-16T01:54:08;12.90;99.90
29185;DHT22;16233;47.964;-3.842;2022-10-16T01:56:12;12.80;99.90
29185;DHT22;16233;47.964;-3.842;2022-10-16T01:58:14;12.80;99.90
29185;DHT22;16233;47.964;-3.842;2022-10-16T02:00:18;12.70;99.90
29185;DHT22;16233;47.964;-3.842;2022-10-16T02:02:21;12.60;99.90
29185;DHT22;16233;47.964;-3.842;2022-10-16T02:04:26;12.50;99.90
29185;DHT22;16233;47.964;-3.842;2022-10-16T02:06:28;12.50;99.90
29185;DHT22;16233;47.964;-3.842;2022-10-16T02:08:30;12.40;99.90
29185;DHT22;16233;47.964;-3.842;2022-10-16T02:10:32;12.40;99.90
29185;DHT22;16233;47.964;-3.842;2022-10-16T02:12:37;12.30;99.90
29185;DHT22;16233;47.964;-3.842;2022-10-16T02:14:39;12.30;99.90
29185;DHT22;16233;47.964;-3.842;2022-10-16T02:16:46;12.20;99.90
29185;DHT22;16233;47.964;-3.842;2022-10-16T02:18:47;12.20;99.90
29185;DHT22;16233;47.964;-3.842;2022-10-16T02:20:52;12.10;99.90
29185;DHT22;16233;47.964;-3.842;2022-10-16T02:22:56;12.10;99.90
29185;DHT22;16233;47.964;-3.842;2022-10-16T02:25:01;12.10;99.90
29185;DHT22;16233;47.964;-3.842;2022-10-16T02:27:08;12.10;99.90
29185;DHT22;16233;47.964;-3.842;2022-10-16T02:29:12;12.00;99.90
29185;DHT22;16233;47.964;-3.842;2022-10-16T02:31:19;12.00;99.90
29185;DHT22;16233;47.964;-3.842;2022-10-16T02:33:25;12.00;99.90
29185;DHT22;16233;47.964;-3.842;2022-10-16T02:35:28;11.90;99.90
29185;DHT22;16233;47.964;-3.842;2022-10-16T02:37:30;11.80;99.90
29185;DHT22;16233;47.964;-3.842;2022-10-16T02:39:33;11.80;99.90
29185;DHT22;16233;47.964;-3.842;2022-10-16T02:41:34;11.80;99.90
29185;DHT22;16233;47.964;-3.842;2022-10-16T02:43:35;11.80;99.90
29185;DHT22;16233;47.964;-3.842;2022-10-16T02:45:36;11.80;99.90
29185;DHT22;16233;47.964;-3.842;2022-10-16T02:47:37;11.70;99.90
29185;DHT22;16233;47.964;-3.842;2022-10-16T02:49:40;11.70;99.90
29185;DHT22;16233;47.964;-3.842;2022-10-16T02:51:41;11.60;99.90
29185;DHT22;16233;47.964;-3.842;2022-10-16T02:53:42;11.60;99.90
29185;DHT22;16233;47.964;-3.842;2022-10-16T02:55:43;11.50;99.90
29185;DHT22;16233;47.964;-3.842;2022-10-16T02:57:44;11.50;99.90
29185;DHT22;16233;47.964;-3.842;2022-10-16T02:59:45;11.40;99.90
29185;DHT22;16233;47.964;-3.842;2022-10-16T03:01:46;11.40;99.90
29185;DHT22;16233;47.964;-3.842;2022-10-16T03:03:47;11.30;99.90
29185;DHT22;16233;47.964;-3.842;2022-10-16T03:05:49;11.30;99.90
29185;DHT22;16233;47.964;-3.842;2022-10-16T03:07:50;11.20;99.90
29185;DHT22;16233;47.964;-3.842;2022-10-16T03:09:51;11.20;99.90
29185;DHT22;16233;47.964;-3.842;2022-10-16T03:11:52;11.10;99.90
29185;DHT22;16233;47.964;-3.842;2022-10-16T03:13:53;11.10;99.90
29185;DHT22;16233;47.964;-3.842;2022-10-16T03:15:54;11.10;99.90
29185;DHT22;16233;47.964;-3.842;2022-10-16T03:17:57;11.10;99.90
29185;DHT22;16233;47.964;-3.842;2022-10-16T03:19:58;11.00;99.90
29185;DHT22;16233;47.964;-3.842;2022-10-16T03:22:00;11.00;99.90
29185;DHT22;16233;47.964;-3.842;2022-10-16T03:24:02;10.90;99.90
29185;DHT22;16233;47.964;-3.842;2022-10-16T03:26:03;10.90;99.90
29185;DHT22;16233;47.964;-3.842;2022-10-16T03:28:04;10.90;99.90
29185;DHT22;16233;47.964;-3.842;2022-10-16T03:30:06;10.80;99.90
29185;DHT22;16233;47.964;-3.842;2022-10-16T03:32:07;10.80;99.90
29185;DHT22;16233;47.964;-3.842;2022-10-16T03:34:08;10.70;99.90
29185;DHT22;16233;47.964;-3.842;2022-10-16T03:36:09;10.70;99.90
29185;DHT22;16233;47.964;-3.842;2022-10-16T03:38:12;10.70;99.90
29185;DHT22;16233;47.964;-3.842;2022-10-16T03:40:13;10.70;99.90
29185;DHT22;16233;47.964;-3.842;2022-10-16T03:42:14;10.60;99.90
29185;DHT22;16233;47.964;-3.842;2022-10-16T03:44:15;10.60;99.90
29185;DHT22;16233;47.964;-3.842;2022-10-16T03:46:16;10.60;99.90
29185;DHT22;16233;47.964;-3.842;2022-10-16T03:48:17;10.70;99.90
29185;DHT22;16233;47.964;-3.842;2022-10-16T03:50:18;10.70;99.90
29185;DHT22;16233;47.964;-3.842;2022-10-16T03:52:19;10.70;99.90
29185;DHT22;16233;47.964;-3.842;2022-10-16T03:54:22;10.70;99.90
29185;DHT22;16233;47.964;-3.842;2022-10-16T03:56:23;10.70;99.90
29185;DHT22;16233;47.964;-3.842;2022-10-16T03:58:24;10.70;99.90
29185;DHT22;16233;47.964;-3.842;2022-10-16T04:00:25;10.70;99.90
29185;DHT22;16233;47.964;-3.842;2022-10-16T04:02:26;10.70;99.90
29185;DHT22;16233;47.964;-3.842;2022-10-16T04:04:27;10.80;99.90
29185;DHT22;16233;47.964;-3.842;2022-10-16T04:06:28;10.80;99.90
29185;DHT22;16233;47.964;-3.842;2022-10-16T04:08:29;10.90;99.90
29185;DHT22;16233;47.964;-3.842;2022-10-16T04:10:31;10.90;99.90
29185;DHT22;16233;47.964;-3.842;2022-10-16T04:12:32;10.90;99.90
29185;DHT22;16233;47.964;-3.842;2022-10-16T04:14:33;10.90;99.90
29185;DHT22;16233;47.964;-3.842;2022-10-16T04:16:34;11.00;99.90
29185;DHT22;16233;47.964;-3.842;2022-10-16T04:18:35;11.10;99.90
29185;DHT22;16233;47.964;-3.842;2022-10-16T04:20:36;11.10;99.90
29185;DHT22;16233;47.964;-3.842;2022-10-16T04:22:37;11.10;99.90
29185;DHT22;16233;47.964;-3.842;2022-10-16T04:24:38;11.10;99.90
29185;DHT22;16233;47.964;-3.842;2022-10-16T04:26:41;11.20;99.90
29185;DHT22;16233;47.964;-3.842;2022-10-16T04:28:42;11.20;99.90
29185;DHT22;16233;47.964;-3.842;2022-10-16T04:30:43;11.30;99.90
29185;DHT22;16233;47.964;-3.842;2022-10-16T04:32:48;11.30;99.90
29185;DHT22;16233;47.964;-3.842;2022-10-16T04:34:49;11.30;99.90
29185;DHT22;16233;47.964;-3.842;2022-10-16T04:36:50;11.40;99.90
29185;DHT22;16233;47.964;-3.842;2022-10-16T04:38:51;11.40;99.90
29185;DHT22;16233;47.964;-3.842;2022-10-16T04:40:52;11.50;99.90
29185;DHT22;16233;47.964;-3.842;2022-10-16T04:42:54;11.50;99.90
29185;DHT22;16233;47.964;-3.842;2022-10-16T04:44:55;11.50;99.90
29185;DHT22;16233;47.964;-3.842;2022-10-16T04:46:56;11.60;99.90
29185;DHT22;16233;47.964;-3.842;2022-10-16T04:48:58;11.60;99.90
29185;DHT22;16233;47.964;-3.842;2022-10-16T04:50:59;11.60;99.90
29185;DHT22;16233;47.964;-3.842;2022-10-16T04:53:00;11.60;99.90
29185;DHT22;16233;47.964;-3.842;2022-10-16T04:55:01;11.60;99.90
29185;DHT22;16233;47.964;-3.842;2022-10-16T04:57:02;11.60;99.90
29185;DHT22;16233;47.964;-3.842;2022-10-16T04:59:05;11.70;99.90
29185;DHT22;16233;47.964;-3.842;2022-10-16T05:01:06;11.60;99.90
29185;DHT22;16233;47.964;-3.842;2022-10-16T05:03:07;11.60;99.90
29185;DHT22;16233;47.964;-3.842;2022-10-16T05:05:08;11.60;99.90
29185;DHT22;16233;47.964;-3.842;2022-10-16T05:07:09;11.60;99.90
29185;DHT22;16233;47.964;-3.842;2022-10-16T05:09:10;11.60;99.90
29185;DHT22;16233;47.964;-3.842;2022-10-16T05:11:11;11.50;99.90
29185;DHT22;16233;47.964;-3.842;2022-10-16T05:13:12;11.50;99.90
29185;DHT22;16233;47.964;-3.842;2022-10-16T05:15:15;11.50;99.90
29185;DHT22;16233;47.964;-3.842;2022-10-16T05:17:16;11.50;99.90
29185;DHT22;16233;47.964;-3.842;2022-10-16T05:19:17;11.50;99.90
29185;DHT22;16233;47.964;-3.842;2022-10-16T05:21:18;11.50;99.90
29185;DHT22;16233;47.964;-3.842;2022-10-16T05:23:19;11.50;99.90
29185;DHT22;16233;47.964;-3.842;2022-10-16T05:25:20;11.50;99.90
29185;DHT22;16233;47.964;-3.842;2022-10-16T05:27:21;11.50;99.90
29185;DHT22;16233;47.964;-3.842;2022-10-16T05:29:22;11.50;99.90
29185;DHT22;16233;47.964;-3.842;2022-10-16T05:31:24;11.50;99.90
29185;DHT22;16233;47.964;-3.842;2022-10-16T05:33:25;11.50;99.90
29185;DHT22;16233;47.964;-3.842;2022-10-16T05:35:26;11.50;99.90
29185;DHT22;16233;47.964;-3.842;2022-10-16T05:37:27;11.50;99.90
29185;DHT22;16233;47.964;-3.842;2022-10-16T05:39:28;11.50;99.90
29185;DHT22;16233;47.964;-3.842;2022-10-16T05:41:29;11.50;99.90
29185;DHT22;16233;47.964;-3.842;2022-10-16T05:43:31;11.50;99.90
29185;DHT22;16233;47.964;-3.842;2022-10-16T05:45:32;11.50;99.90
29185;DHT22;16233;47.964;-3.842;2022-10-16T05:47:35;11.50;99.90
29185;DHT22;16233;47.964;-3.842;2022-10-16T05:49:36;11.50;99.90
29185;DHT22;16233;47.964;-3.842;2022-10-16T05:51:37;11.50;99.90
29185;DHT22;16233;47.964;-3.842;2022-10-16T05:53:39;11.50;99.90
29185;DHT22;16233;47.964;-3.842;2022-10-16T05:55:40;11.50;99.90
29185;DHT22;16233;47.964;-3.842;2022-10-16T05:57:41;11.60;99.90
29185;DHT22;16233;47.964;-3.842;2022-10-16T05:59:42;11.60;99.90
29185;DHT22;16233;47.964;-3.842;2022-10-16T06:01:44;11.60;99.90
29185;DHT22;16233;47.964;-3.842;2022-10-16T06:03:46;11.60;99.90
29185;DHT22;16233;47.964;-3.842;2022-10-16T06:05:47;11.70;99.90
29185;DHT22;16233;47.964;-3.842;2022-10-16T06:07:48;11.70;99.90
29185;DHT22;16233;47.964;-3.842;2022-10-16T06:09:49;11.70;99.90
29185;DHT22;16233;47.964;-3.842;2022-10-16T06:11:50;11.70;99.90
29185;DHT22;16233;47.964;-3.842;2022-10-16T06:13:52;11.70;99.90
29185;DHT22;16233;47.964;-3.842;2022-10-16T06:15:56;11.70;99.90
29185;DHT22;16233;47.964;-3.842;2022-10-16T06:17:57;11.70;99.90
29185;DHT22;16233;47.964;-3.842;2022-10-16T06:19:59;11.70;99.90
29185;DHT22;16233;47.964;-3.842;2022-10-16T06:22:00;11.70;99.90
29185;DHT22;16233;47.964;-3.842;2022-10-16T06:24:01;11.70;99.90
29185;DHT22;16233;47.964;-3.842;2022-10-16T06:26:06;11.70;99.90
29185;DHT22;16233;47.964;-3.842;2022-10-16T06:28:07;11.70;99.90
29185;DHT22;16233;47.964;-3.842;2022-10-16T06:30:09;11.70;99.90
29185;DHT22;16233;47.964;-3.842;2022-10-16T06:32:10;11.70;99.90
29185;DHT22;16233;47.964;-3.842;2022-10-16T06:34:11;11.70;99.90
29185;DHT22;16233;47.964;-3.842;2022-10-16T06:36:15;11.70;99.90
29185;DHT22;16233;47.964;-3.842;2022-10-16T06:38:16;11.70;99.90
29185;DHT22;16233;47.964;-3.842;2022-10-16T06:40:17;11.70;99.90
29185;DHT22;16233;47.964;-3.842;2022-10-16T06:42:19;11.80;99.90
29185;DHT22;16233;47.964;-3.842;2022-10-16T06:44:20;11.90;99.90
29185;DHT22;16233;47.964;-3.842;2022-10-16T06:46:22;11.90;99.90
29185;DHT22;16233;47.964;-3.842;2022-10-16T06:48:24;12.00;99.90
29185;DHT22;16233;47.964;-3.842;2022-10-16T06:50:25;12.00;99.90
29185;DHT22;16233;47.964;-3.842;2022-10-16T06:52:29;12.00;99.90
29185;DHT22;16233;47.964;-3.842;2022-10-16T06:54:30;12.10;99.90
29185;DHT22;16233;47.964;-3.842;2022-10-16T06:56:32;12.10;99.90
29185;DHT22;16233;47.964;-3.842;2022-10-16T06:58:33;12.20;99.90
29185;DHT22;16233;47.964;-3.842;2022-10-16T07:00:34;12.20;99.90
29185;DHT22;16233;47.964;-3.842;2022-10-16T07:02:35;12.30;99.90
29185;DHT22;16233;47.964;-3.842;2022-10-16T07:04:36;12.30;99.90
29185;DHT22;16233;47.964;-3.842;2022-10-16T07:06:37;12.40;99.90
29185;DHT22;16233;47.964;-3.842;2022-10-16T07:08:43;12.50;99.90
29185;DHT22;16233;47.964;-3.842;2022-10-16T07:10:44;12.50;99.90
29185;DHT22;16233;47.964;-3.842;2022-10-16T07:12:45;12.50;99.90
29185;DHT22;16233;47.964;-3.842;2022-10-16T07:14:46;12.60;99.90
29185;DHT22;16233;47.964;-3.842;2022-10-16T07:16:47;12.70;99.90
29185;DHT22;16233;47.964;-3.842;2022-10-16T07:18:48;12.70;99.90
29185;DHT22;16233;47.964;-3.842;2022-10-16T07:20:49;12.80;99.90
29185;DHT22;16233;47.964;-3.842;2022-10-16T07:22:50;12.80;99.90
29185;DHT22;16233;47.964;-3.842;2022-10-16T07:24:53;12.90;99.90
29185;DHT22;16233;47.964;-3.842;2022-10-16T07:26:54;13.00;99.90
29185;DHT22;16233;47.964;-3.842;2022-10-16T07:28:55;13.00;99.90
29185;DHT22;16233;47.964;-3.842;2022-10-16T07:31:00;13.00;99.90
29185;DHT22;16233;47.964;-3.842;2022-10-16T07:33:01;13.10;99.90
29185;DHT22;16233;47.964;-3.842;2022-10-16T07:35:02;13.10;99.90
29185;DHT22;16233;47.964;-3.842;2022-10-16T07:37:04;13.20;99.90
29185;DHT22;16233;47.964;-3.842;2022-10-16T07:39:05;13.20;99.90
29185;DHT22;16233;47.964;-3.842;2022-10-16T07:41:09;13.30;99.90
29185;DHT22;16233;47.964;-3.842;2022-10-16T07:43:11;13.30;99.90
29185;DHT22;16233;47.964;-3.842;2022-10-16T07:45:12;13.40;99.90
29185;DHT22;16233;47.964;-3.842;2022-10-16T07:47:13;13.40;99.90
29185;DHT22;16233;47.964;-3.842;2022-10-16T07:49:14;13.50;99.90
29185;DHT22;16233;47.964;-3.842;2022-10-16T07:51:17;13.50;99.90
29185;DHT22;16233;47.964;-3.842;2022-10-16T07:53:18;13.60;99.90
29185;DHT22;16233;47.964;-3.842;2022-10-16T07:55:19;13.70;99.90
29185;DHT22;16233;47.964;-3.842;2022-10-16T07:59:32;13.70;99.90
29185;DHT22;16233;47.964;-3.842;2022-10-16T08:01:33;13.80;99.90
29185;DHT22;16233;47.964;-3.842;2022-10-16T08:03:34;13.80;99.90
29185;DHT22;16233;47.964;-3.842;2022-10-16T08:05:35;13.90;99.90
29185;DHT22;16233;47.964;-3.842;2022-10-16T08:07:36;13.90;99.90
29185;DHT22;16233;47.964;-3.842;2022-10-16T08:09:37;14.00;99.90
29185;DHT22;16233;47.964;-3.842;2022-10-16T08:11:38;14.00;99.90
29185;DHT22;16233;47.964;-3.842;2022-10-16T08:13:39;14.10;99.90
29185;DHT22;16233;47.964;-3.842;2022-10-16T08:15:41;14.10;99.90
29185;DHT22;16233;47.964;-3.842;2022-10-16T08:17:43;14.10;99.90
29185;DHT22;16233;47.964;-3.842;2022-10-16T08:19:47;14.10;99.90
29185;DHT22;16233;47.964;-3.842;2022-10-16T08:21:49;14.10;99.90
29185;DHT22;16233;47.964;-3.842;2022-10-16T08:23:50;14.10;99.90
29185;DHT22;16233;47.964;-3.842;2022-10-16T08:25:52;14.10;99.90
29185;DHT22;16233;47.964;-3.842;2022-10-16T08:27:53;14.10;99.90
29185;DHT22;16233;47.964;-3.842;2022-10-16T08:29:54;14.10;99.90
29185;DHT22;16233;47.964;-3.842;2022-10-16T08:31:57;14.20;99.90
29185;DHT22;16233;47.964;-3.842;2022-10-16T08:33:58;14.20;99.90
29185;DHT22;16233;47.964;-3.842;2022-10-16T08:35:59;14.20;99.90
29185;DHT22;16233;47.964;-3.842;2022-10-16T08:38:00;14.30;99.90
29185;DHT22;16233;47.964;-3.842;2022-10-16T08:40:04;14.30;99.90
29185;DHT22;16233;47.964;-3.842;2022-10-16T08:42:14;14.40;99.90
29185;DHT22;16233;47.964;-3.842;2022-10-16T08:44:56;14.40;99.90
29185;DHT22;16233;47.964;-3.842;2022-10-16T08:47:08;14.40;99.90
29185;DHT22;16233;47.964;-3.842;2022-10-16T08:49:14;14.40;99.90
29185;DHT22;16233;47.964;-3.842;2022-10-16T08:51:19;14.50;99.90
29185;DHT22;16233;47.964;-3.842;2022-10-16T08:53:24;14.50;99.90
29185;DHT22;16233;47.964;-3.842;2022-10-16T08:55:33;14.50;99.90
29185;DHT22;16233;47.964;-3.842;2022-10-16T08:57:34;14.50;99.90
29185;DHT22;16233;47.964;-3.842;2022-10-16T08:59:35;14.60;99.90
29185;DHT22;16233;47.964;-3.842;2022-10-16T09:01:40;14.60;99.90
29185;DHT22;16233;47.964;-3.842;2022-10-16T09:03:54;14.60;99.90
29185;DHT22;16233;47.964;-3.842;2022-10-16T09:06:10;14.60;99.90
29185;DHT22;16233;47.964;-3.842;2022-10-16T09:08:17;14.60;99.90
29185;DHT22;16233;47.964;-3.842;2022-10-16T09:10:33;14.60;99.90
29185;DHT22;16233;47.964;-3.842;2022-10-16T09:12:40;14.50;99.90
29185;DHT22;16233;47.964;-3.842;2022-10-16T09:14:52;14.50;99.90
29185;DHT22;16233;47.964;-3.842;2022-10-16T09:17:00;14.50;99.90
29185;DHT22;16233;47.964;-3.842;2022-10-16T09:19:15;14.50;99.90
29185;DHT22;16233;47.964;-3.842;2022-10-16T09:21:21;14.50;99.90
29185;DHT22;16233;47.964;-3.842;2022-10-16T09:23:26;14.50;99.90
29185;DHT22;16233;47.964;-3.842;2022-10-16T09:25:28;14.60;99.90
29185;DHT22;16233;47.964;-3.842;2022-10-16T09:27:28;14.60;99.90
29185;DHT22;16233;47.964;-3.842;2022-10-16T09:29:29;14.60;99.90
29185;DHT22;16233;47.964;-3.842;2022-10-16T09:31:31;14.60;99.90
29185;DHT22;16233;47.964;-3.842;2022-10-16T09:33:36;14.70;99.90
29185;DHT22;16233;47.964;-3.842;2022-10-16T09:35:42;14.70;99.90
29185;DHT22;16233;47.964;-3.842;2022-10-16T09:37:45;14.70;99.90
29185;DHT22;16233;47.964;-3.842;2022-10-16T09:39:49;14.70;99.90
29185;DHT22;16233;47.964;-3.842;2022-10-16T09:41:50;14.70;99.90
29185;DHT22;16233;47.964;-3.842;2022-10-16T09:43:54;14.80;99.90
29185;DHT22;16233;47.964;-3.842;2022-10-16T09:45:58;14.80;99.90
29185;DHT22;16233;47.964;-3.842;2022-10-16T09:48:02;14.90;99.90
29185;DHT22;16233;47.964;-3.842;2022-10-16T09:50:22;14.90;99.90
29185;DHT22;16233;47.964;-3.842;2022-10-16T09:52:24;14.90;99.90
29185;DHT22;16233;47.964;-3.842;2022-10-16T09:54:26;14.90;99.90
29185;DHT22;16233;47.964;-3.842;2022-10-16T09:56:28;14.80;99.90
29185;DHT22;16233;47.964;-3.842;2022-10-16T09:58:29;14.80;99.90
29185;DHT22;16233;47.964;-3.842;2022-10-16T10:00:30;14.80;99.90
29185;DHT22;16233;47.964;-3.842;2022-10-16T10:02:35;14.70;99.90
29185;DHT22;16233;47.964;-3.842;2022-10-16T10:04:40;14.80;99.90
29185;DHT22;16233;47.964;-3.842;2022-10-16T10:06:45;14.70;99.90
29185;DHT22;16233;47.964;-3.842;2022-10-16T10:09:04;14.70;99.90
29185;DHT22;16233;47.964;-3.842;2022-10-16T10:11:05;14.70;99.90
29185;DHT22;16233;47.964;-3.842;2022-10-16T10:13:17;14.80;99.90
29185;DHT22;16233;47.964;-3.842;2022-10-16T10:15:18;14.70;99.90
29185;DHT22;16233;47.964;-3.842;2022-10-16T10:17:20;14.70;99.90
29185;DHT22;16233;47.964;-3.842;2022-10-16T10:19:23;14.80;99.90
29185;DHT22;16233;47.964;-3.842;2022-10-16T10:21:24;14.80;99.90
29185;DHT22;16233;47.964;-3.842;2022-10-16T10:23:26;14.80;99.90
29185;DHT22;16233;47.964;-3.842;2022-10-16T10:25:41;14.80;99.90
29185;DHT22;16233;47.964;-3.842;2022-10-16T10:27:55;14.70;99.90
29185;DHT22;16233;47.964;-3.842;2022-10-16T10:30:03;14.80;99.90
29185;DHT22;16233;47.964;-3.842;2022-10-16T10:32:17;14.80;99.90
29185;DHT22;16233;47.964;-3.842;2022-10-16T10:34:32;14.80;99.90
29185;DHT22;16233;47.964;-3.842;2022-10-16T10:36:37;14.70;99.90
29185;DHT22;16233;47.964;-3.842;2022-10-16T10:38:47;14.80;99.90
29185;DHT22;16233;47.964;-3.842;2022-10-16T10:40:57;14.80;99.90
29185;DHT22;16233;47.964;-3.842;2022-10-16T10:43:03;14.80;99.90
29185;DHT22;16233;47.964;-3.842;2022-10-16T10:45:16;14.80;99.90
29185;DHT22;16233;47.964;-3.842;2022-10-16T10:47:24;14.80;99.90
29185;DHT22;16233;47.964;-3.842;2022-10-16T10:49:39;14.90;99.90
29185;DHT22;16233;47.964;-3.842;2022-10-16T10:51:51;14.90;99.90
29185;DHT22;16233;47.964;-3.842;2022-10-16T10:54:02;14.90;99.90
29185;DHT22;16233;47.964;-3.842;2022-10-16T10:56:16;15.00;99.90
29185;DHT22;16233;47.964;-3.842;2022-10-16T11:00:51;15.00;99.90
29185;DHT22;16233;47.964;-3.842;2022-10-16T11:03:06;15.10;99.90
29185;DHT22;16233;47.964;-3.842;2022-10-16T11:05:30;15.20;99.90
29185;DHT22;16233;47.964;-3.842;2022-10-16T11:07:34;15.20;99.90
29185;DHT22;16233;47.964;-3.842;2022-10-16T11:09:41;15.20;99.90
29185;DHT22;16233;47.964;-3.842;2022-10-16T11:11:47;15.20;99.90
29185;DHT22;16233;47.964;-3.842;2022-10-16T11:13:57;15.20;99.90
29185;DHT22;16233;47.964;-3.842;2022-10-16T11:16:06;15.10;99.90
29185;DHT22;16233;47.964;-3.842;2022-10-16T11:18:16;15.10;99.90
29185;DHT22;16233;47.964;-3.842;2022-10-16T11:20:23;15.10;99.90
29185;DHT22;16233;47.964;-3.842;2022-10-16T11:22:28;15.10;99.90
29185;DHT22;16233;47.964;-3.842;2022-10-16T11:24:37;15.10;99.90
29185;DHT22;16233;47.964;-3.842;2022-10-16T11:26:42;15.10;99.90
29185;DHT22;16233;47.964;-3.842;2022-10-16T11:28:48;15.10;99.90
29185;DHT22;16233;47.964;-3.842;2022-10-16T11:30:53;15.10;99.90
29185;DHT22;16233;47.964;-3.842;2022-10-16T11:33:03;15.10;99.90
29185;DHT22;16233;47.964;-3.842;2022-10-16T11:35:11;15.10;99.90
29185;DHT22;16233;47.964;-3.842;2022-10-16T11:37:20;15.10;99.90
29185;DHT22;16233;47.964;-3.842;2022-10-16T11:39:25;15.10;99.90
29185;DHT22;16233;47.964;-3.842;2022-10-16T11:41:29;15.20;99.90
29185;DHT22;16233;47.964;-3.842;2022-10-16T11:43:38;15.10;99.90
29185;DHT22;16233;47.964;-3.842;2022-10-16T11:45:43;15.20;99.90
29185;DHT22;16233;47.964;-3.842;2022-10-16T11:47:50;15.20;99.90
29185;DHT22;16233;47.964;-3.842;2022-10-16T11:49:55;15.30;99.90
29185;DHT22;16233;47.964;-3.842;2022-10-16T11:52:03;15.20;99.90
29185;DHT22;16233;47.964;-3.842;2022-10-16T11:54:14;15.30;99.90
29185;DHT22;16233;47.964;-3.842;2022-10-16T11:56:18;15.30;99.90
29185;DHT22;16233;47.964;-3.842;2022-10-16T11:58:24;15.40;99.90
29185;DHT22;16233;47.964;-3.842;2022-10-16T12:00:30;15.40;99.90
29185;DHT22;16233;47.964;-3.842;2022-10-16T12:02:44;15.40;99.90
29185;DHT22;16233;47.964;-3.842;2022-10-16T12:04:50;15.50;99.90
29185;DHT22;16233;47.964;-3.842;2022-10-16T12:06:59;15.50;99.90
29185;DHT22;16233;47.964;-3.842;2022-10-16T12:09:03;15.50;99.90
29185;DHT22;16233;47.964;-3.842;2022-10-16T12:11:09;15.50;99.90
29185;DHT22;16233;47.964;-3.842;2022-10-16T12:13:34;15.50;99.90
29185;DHT22;16233;47.964;-3.842;2022-10-16T12:15:35;15.60;99.90
29185;DHT22;16233;47.964;-3.842;2022-10-16T12:17:38;15.70;99.90
29185;DHT22;16233;47.964;-3.842;2022-10-16T12:19:39;15.70;99.90
29185;DHT22;16233;47.964;-3.842;2022-10-16T12:21:41;15.70;99.90
29185;DHT22;16233;47.964;-3.842;2022-10-16T12:23:48;15.80;99.90
29185;DHT22;16233;47.964;-3.842;2022-10-16T12:25:54;15.80;99.90
29185;DHT22;16233;47.964;-3.842;2022-10-16T12:28:04;15.80;99.90
29185;DHT22;16233;47.964;-3.842;2022-10-16T12:30:06;15.90;99.90
29185;DHT22;16233;47.964;-3.842;2022-10-16T12:32:26;15.90;99.90
29185;DHT22;16233;47.964;-3.842;2022-10-16T12:34:32;15.90;99.90
29185;DHT22;16233;47.964;-3.842;2022-10-16T12:36:37;16.00;99.90
29185;DHT22;16233;47.964;-3.842;2022-10-16T12:38:46;16.10;99.90
29185;DHT22;16233;47.964;-3.842;2022-10-16T12:40:56;16.10;99.90
29185;DHT22;16233;47.964;-3.842;2022-10-16T12:42:58;16.20;99.90
29185;DHT22;16233;47.964;-3.842;2022-10-16T12:44:59;16.30;99.90
29185;DHT22;16233;47.964;-3.842;2022-10-16T12:47:01;16.20;99.90
29185;DHT22;16233;47.964;-3.842;2022-10-16T12:49:23;16.20;99.90
29185;DHT22;16233;47.964;-3.842;2022-10-16T12:51:36;16.30;99.90
29185;DHT22;16233;47.964;-3.842;2022-10-16T12:53:37;16.30;99.90
29185;DHT22;16233;47.964;-3.842;2022-10-16T12:55:47;16.30;99.90
29185;DHT22;16233;47.964;-3.842;2022-10-16T12:58:05;16.30;99.90